sensor_id;sensor_type;location;lat;lon;timestamp;pressure;altitude;pressure_sealevel;temperature;humidity
51083;BME280;37131;42.694;23.350;2023-04-08T00:01:51;95573.53;;;5.66;66.62
51083;BME280;37131;42.694;23.350;2023-04-08T00:04:17;95575.28;;;5.80;65.61
51083;BME280;37131;42.694;23.350;2023-04-08T00:06:42;95579.09;;;5.26;66.29
51083;BME280;37131;42.694;23.350;2023-04-08T00:09:07;95582.25;;;5.22;67.47
51083;BME280;37131;42.694;23.350;2023-04-08T00:11:33;95573.28;;;5.03;68.51
51083;BME280;37131;42.694;23.350;2023-04-08T00:13:58;95576.59;;;4.97;68.59
51083;BME280;37131;42.694;23.350;2023-04-08T00:16:24;95576.13;;;5.08;68.49
51083;BME280;37131;42.694;23.350;2023-04-08T00:18:50;95574.25;;;5.17;67.70
51083;BME280;37131;42.694;23.350;2023-04-08T00:21:16;95578.31;;;5.26;67.15
51083;BME280;37131;42.694;23.350;2023-04-08T00:23:42;95574.22;;;5.53;65.46
51083;BME280;37131;42.694;23.350;2023-04-08T00:26:07;95576.84;;;5.38;65.06
51083;BME280;37131;42.694;23.350;2023-04-08T00:28:33;95582.66;;;5.25;65.32
51083;BME280;37131;42.694;23.350;2023-04-08T00:30:58;95575.28;;;5.22;65.43
51083;BME280;37131;42.694;23.350;2023-04-08T00:33:24;95574.94;;;4.74;67.22
51083;BME280;37131;42.694;23.350;2023-04-08T00:35:49;95575.00;;;4.66;68.00
51083;BME280;37131;42.694;23.350;2023-04-08T00:38:15;95582.38;;;4.84;68.51
51083;BME280;37131;42.694;23.350;2023-04-08T00:40:40;95580.94;;;4.81;68.76
51083;BME280;37131;42.694;23.350;2023-04-08T00:43:06;95575.47;;;4.84;69.42
51083;BME280;37131;42.694;23.350;2023-04-08T00:45:32;95582.91;;;4.94;70.20
51083;BME280;37131;42.694;23.350;2023-04-08T00:47:58;95582.34;;;5.29;68.29
51083;BME280;37131;42.694;23.350;2023-04-08T00:50:23;95582.50;;;4.76;69.37
51083;BME280;37131;42.694;23.350;2023-04-08T00:52:48;95587.47;;;4.92;69.88
51083;BME280;37131;42.694;23.350;2023-04-08T00:55:14;95582.13;;;4.49;70.88
51083;BME280;37131;42.694;23.350;2023-04-08T00:57:39;95590.72;;;4.26;72.32
51083;BME280;37131;42.694;23.350;2023-04-08T01:00:05;95588.78;;;4.28;73.02
51083;BME280;37131;42.694;23.350;2023-04-08T01:02:42;95584.44;;;4.29;73.63
51083;BME280;37131;42.694;23.350;2023-04-08T01:05:20;95592.72;;;4.69;72.70
51083;BME280;37131;42.694;23.350;2023-04-08T01:07:48;95587.16;;;5.02;72.42
51083;BME280;37131;42.694;23.350;2023-04-08T01:10:19;95586.81;;;5.41;69.60
51083;BME280;37131;42.694;23.350;2023-04-08T01:12:52;95588.84;;;5.46;69.22
51083;BME280;37131;42.694;23.350;2023-04-08T01:15:18;95586.69;;;5.86;67.18
51083;BME280;37131;42.694;23.350;2023-04-08T01:17:45;95586.53;;;6.16;65.21
51083;BME280;37131;42.694;23.350;2023-04-08T01:20:12;95584.38;;;5.55;67.59
51083;BME280;37131;42.694;23.350;2023-04-08T01:25:37;95584.44;;;5.40;69.07
51083;BME280;37131;42.694;23.350;2023-04-08T01:28:06;95585.53;;;5.31;69.25
51083;BME280;37131;42.694;23.350;2023-04-08T01:30:33;95588.38;;;5.21;70.53
51083;BME280;37131;42.694;23.350;2023-04-08T01:33:00;95589.00;;;5.38;70.12
51083;BME280;37131;42.694;23.350;2023-04-08T01:35:26;95586.06;;;5.26;71.01
51083;BME280;37131;42.694;23.350;2023-04-08T01:37:51;95592.88;;;5.49;69.48
51083;BME280;37131;42.694;23.350;2023-04-08T01:40:18;95587.78;;;5.55;69.05
51083;BME280;37131;42.694;23.350;2023-04-08T01:42:43;95590.56;;;5.54;68.96
51083;BME280;37131;42.694;23.350;2023-04-08T01:45:09;95587.69;;;5.12;71.11
51083;BME280;37131;42.694;23.350;2023-04-08T01:47:35;95589.78;;;4.87;71.71
51083;BME280;37131;42.694;23.350;2023-04-08T01:50:01;95587.69;;;5.12;70.77
51083;BME280;37131;42.694;23.350;2023-04-08T01:52:27;95592.72;;;5.35;70.51
51083;BME280;37131;42.694;23.350;2023-04-08T01:54:54;95589.16;;;5.00;70.90
51083;BME280;37131;42.694;23.350;2023-04-08T01:57:23;95593.16;;;4.43;72.68
51083;BME280;37131;42.694;23.350;2023-04-08T01:59:49;95596.09;;;4.54;72.52
51083;BME280;37131;42.694;23.350;2023-04-08T02:02:15;95604.13;;;4.45;73.64
51083;BME280;37131;42.694;23.350;2023-04-08T02:04:42;95604.84;;;4.53;72.90
51083;BME280;37131;42.694;23.350;2023-04-08T02:07:08;95604.03;;;4.53;72.68
51083;BME280;37131;42.694;23.350;2023-04-08T02:09:33;95617.03;;;4.45;72.72
51083;BME280;37131;42.694;23.350;2023-04-08T02:11:59;95619.59;;;4.30;73.67
51083;BME280;37131;42.694;23.350;2023-04-08T02:14:25;95621.38;;;4.59;72.68
51083;BME280;37131;42.694;23.350;2023-04-08T02:16:55;95621.69;;;4.11;73.97
51083;BME280;37131;42.694;23.350;2023-04-08T02:19:28;95621.84;;;4.10;74.47
51083;BME280;37131;42.694;23.350;2023-04-08T02:22:01;95614.69;;;3.97;75.34
51083;BME280;37131;42.694;23.350;2023-04-08T02:24:31;95589.13;;;3.41;77.62
51083;BME280;37131;42.694;23.350;2023-04-08T02:26:59;95608.69;;;3.58;77.22
51083;BME280;37131;42.694;23.350;2023-04-08T02:29:25;95625.31;;;3.79;78.14
51083;BME280;37131;42.694;23.350;2023-04-08T02:31:54;95624.16;;;3.58;79.12
51083;BME280;37131;42.694;23.350;2023-04-08T02:34:21;95613.34;;;3.31;80.58
51083;BME280;37131;42.694;23.350;2023-04-08T02:36:46;95621.66;;;3.42;80.72
51083;BME280;37131;42.694;23.350;2023-04-08T02:39:12;95619.38;;;3.47;81.03
51083;BME280;37131;42.694;23.350;2023-04-08T02:41:38;95613.19;;;3.33;81.73
51083;BME280;37131;42.694;23.350;2023-04-08T02:44:03;95619.88;;;3.42;81.94
51083;BME280;37131;42.694;23.350;2023-04-08T02:46:28;95622.03;;;3.30;82.44
51083;BME280;37131;42.694;23.350;2023-04-08T02:48:54;95622.03;;;3.30;82.58
51083;BME280;37131;42.694;23.350;2023-04-08T02:51:19;95619.53;;;3.45;82.23
51083;BME280;37131;42.694;23.350;2023-04-08T02:53:45;95577.56;;;3.05;82.90
51083;BME280;37131;42.694;23.350;2023-04-08T02:56:11;95620.97;;;3.48;82.52
51083;BME280;37131;42.694;23.350;2023-04-08T02:58:36;95599.91;;;3.44;82.25
51083;BME280;37131;42.694;23.350;2023-04-08T03:01:02;95621.41;;;3.28;83.31
51083;BME280;37131;42.694;23.350;2023-04-08T03:03:27;95611.19;;;3.12;85.10
51083;BME280;37131;42.694;23.350;2023-04-08T03:05:57;95623.81;;;3.30;84.06
51083;BME280;37131;42.694;23.350;2023-04-08T03:08:22;95632.00;;;3.33;84.82
51083;BME280;37131;42.694;23.350;2023-04-08T03:10:48;95632.31;;;3.39;84.06
51083;BME280;37131;42.694;23.350;2023-04-08T03:13:14;95628.56;;;3.73;82.88
51083;BME280;37131;42.694;23.350;2023-04-08T03:15:40;95620.94;;;4.02;81.77
51083;BME280;37131;42.694;23.350;2023-04-08T03:18:05;95622.81;;;4.09;80.47
51083;BME280;37131;42.694;23.350;2023-04-08T03:20:31;95613.38;;;4.01;80.67
51083;BME280;37131;42.694;23.350;2023-04-08T03:22:56;95618.88;;;3.75;81.56
51083;BME280;37131;42.694;23.350;2023-04-08T03:25:21;95614.81;;;3.26;83.81
51083;BME280;37131;42.694;23.350;2023-04-08T03:27:46;95621.53;;;3.35;85.15
51083;BME280;37131;42.694;23.350;2023-04-08T03:30:12;95618.41;;;3.48;83.83
51083;BME280;37131;42.694;23.350;2023-04-08T03:32:37;95626.47;;;3.45;84.22
51083;BME280;37131;42.694;23.350;2023-04-08T03:35:03;95619.84;;;3.50;84.24
51083;BME280;37131;42.694;23.350;2023-04-08T03:37:28;95627.94;;;3.47;83.99
51083;BME280;37131;42.694;23.350;2023-04-08T03:39:54;95627.16;;;3.93;82.54
51083;BME280;37131;42.694;23.350;2023-04-08T03:42:19;95624.44;;;3.63;82.78
51083;BME280;37131;42.694;23.350;2023-04-08T03:44:45;95627.28;;;3.45;83.75
51083;BME280;37131;42.694;23.350;2023-04-08T03:47:10;95623.91;;;3.45;84.24
51083;BME280;37131;42.694;23.350;2023-04-08T03:49:35;95623.81;;;3.61;84.11
51083;BME280;37131;42.694;23.350;2023-04-08T03:52:01;95626.34;;;3.69;83.22
51083;BME280;37131;42.694;23.350;2023-04-08T03:54:26;95625.09;;;3.89;83.10
51083;BME280;37131;42.694;23.350;2023-04-08T03:56:51;95621.59;;;3.81;82.63
51083;BME280;37131;42.694;23.350;2023-04-08T03:59:16;95620.44;;;3.84;82.86
51083;BME280;37131;42.694;23.350;2023-04-08T04:01:42;95618.72;;;3.99;81.68
51083;BME280;37131;42.694;23.350;2023-04-08T04:04:07;95613.13;;;4.11;81.89
51083;BME280;37131;42.694;23.350;2023-04-08T04:06:32;95616.03;;;3.93;81.74
51083;BME280;37131;42.694;23.350;2023-04-08T04:08:58;95616.47;;;3.96;81.66
51083;BME280;37131;42.694;23.350;2023-04-08T04:11:23;95618.94;;;3.66;82.92
51083;BME280;37131;42.694;23.350;2023-04-08T04:13:48;95601.56;;;3.83;81.21
51083;BME280;37131;42.694;23.350;2023-04-08T04:16:14;95617.56;;;4.02;79.99
51083;BME280;37131;42.694;23.350;2023-04-08T04:18:39;95622.81;;;4.09;79.46
51083;BME280;37131;42.694;23.350;2023-04-08T04:21:05;95627.59;;;4.35;77.63
51083;BME280;37131;42.694;23.350;2023-04-08T04:23:31;95631.84;;;4.81;75.60
51083;BME280;37131;42.694;23.350;2023-04-08T04:25:56;95621.06;;;4.77;76.01
51083;BME280;37131;42.694;23.350;2023-04-08T04:28:21;95634.56;;;5.09;74.39
51083;BME280;37131;42.694;23.350;2023-04-08T04:30:46;95634.69;;;5.16;73.85
51083;BME280;37131;42.694;23.350;2023-04-08T04:33:12;95635.41;;;5.46;72.38
51083;BME280;37131;42.694;23.350;2023-04-08T04:35:38;95627.16;;;5.21;71.89
51083;BME280;37131;42.694;23.350;2023-04-08T04:38:03;95633.50;;;5.03;72.25
51083;BME280;37131;42.694;23.350;2023-04-08T04:40:34;95640.34;;;5.41;71.37
51083;BME280;37131;42.694;23.350;2023-04-08T04:42:59;95638.09;;;5.96;68.38
51083;BME280;37131;42.694;23.350;2023-04-08T04:45:24;95637.00;;;5.84;67.21
51083;BME280;37131;42.694;23.350;2023-04-08T04:47:50;95642.19;;;5.84;67.47
51083;BME280;37131;42.694;23.350;2023-04-08T04:50:15;95634.06;;;5.50;67.43
51083;BME280;37131;42.694;23.350;2023-04-08T04:52:41;95634.03;;;5.65;67.81
51083;BME280;37131;42.694;23.350;2023-04-08T04:55:06;95629.38;;;5.39;66.96
51083;BME280;37131;42.694;23.350;2023-04-08T04:57:32;95629.22;;;5.10;69.50
51083;BME280;37131;42.694;23.350;2023-04-08T04:59:57;95639.31;;;4.76;70.95
51083;BME280;37131;42.694;23.350;2023-04-08T05:02:22;95636.00;;;5.26;69.80
51083;BME280;37131;42.694;23.350;2023-04-08T05:04:48;95647.34;;;4.81;70.06
51083;BME280;37131;42.694;23.350;2023-04-08T05:07:13;95649.00;;;4.73;70.98
51083;BME280;37131;42.694;23.350;2023-04-08T05:09:38;95639.56;;;4.51;71.80
51083;BME280;37131;42.694;23.350;2023-04-08T05:12:04;95649.69;;;4.37;72.47
51083;BME280;37131;42.694;23.350;2023-04-08T05:14:29;95647.28;;;4.36;73.02
51083;BME280;37131;42.694;23.350;2023-04-08T05:16:55;95640.19;;;4.53;72.15
51083;BME280;37131;42.694;23.350;2023-04-08T05:19:21;95641.00;;;4.83;70.36
51083;BME280;37131;42.694;23.350;2023-04-08T05:21:46;95643.31;;;4.93;70.26
51083;BME280;37131;42.694;23.350;2023-04-08T05:24:11;95641.00;;;4.98;70.36
51083;BME280;37131;42.694;23.350;2023-04-08T05:26:37;95643.09;;;5.39;68.62
51083;BME280;37131;42.694;23.350;2023-04-08T05:29:02;95648.66;;;5.58;67.97
51083;BME280;37131;42.694;23.350;2023-04-08T05:31:27;95642.56;;;5.80;66.59
51083;BME280;37131;42.694;23.350;2023-04-08T05:33:52;95639.44;;;5.49;67.63
51083;BME280;37131;42.694;23.350;2023-04-08T05:36:18;95640.38;;;5.26;68.28
51083;BME280;37131;42.694;23.350;2023-04-08T05:38:43;95646.22;;;5.71;68.14
51083;BME280;37131;42.694;23.350;2023-04-08T05:41:08;95642.47;;;6.10;66.36
51083;BME280;37131;42.694;23.350;2023-04-08T05:43:34;95644.19;;;6.03;66.41
51083;BME280;37131;42.694;23.350;2023-04-08T05:46:00;95648.84;;;6.36;65.51
51083;BME280;37131;42.694;23.350;2023-04-08T05:48:29;95649.53;;;6.02;67.05
51083;BME280;37131;42.694;23.350;2023-04-08T05:50:55;95645.88;;;5.96;66.96
51083;BME280;37131;42.694;23.350;2023-04-08T05:53:21;95640.00;;;6.52;66.32
51083;BME280;37131;42.694;23.350;2023-04-08T05:55:46;95646.81;;;6.31;64.10
51083;BME280;37131;42.694;23.350;2023-04-08T05:58:11;95637.16;;;6.19;66.77
51083;BME280;37131;42.694;23.350;2023-04-08T06:00:36;95629.94;;;6.14;66.56
51083;BME280;37131;42.694;23.350;2023-04-08T06:03:02;95643.28;;;5.96;66.61
51083;BME280;37131;42.694;23.350;2023-04-08T06:05:27;95637.50;;;5.94;67.53
51083;BME280;37131;42.694;23.350;2023-04-08T06:07:53;95635.59;;;5.81;67.62
51083;BME280;37131;42.694;23.350;2023-04-08T06:10:18;95630.63;;;6.01;67.90
51083;BME280;37131;42.694;23.350;2023-04-08T06:12:43;95634.38;;;5.99;68.26
51083;BME280;37131;42.694;23.350;2023-04-08T06:15:08;95643.06;;;6.34;67.59
51083;BME280;37131;42.694;23.350;2023-04-08T06:17:37;95635.16;;;6.71;65.38
51083;BME280;37131;42.694;23.350;2023-04-08T06:20:04;95627.47;;;6.91;64.47
51083;BME280;37131;42.694;23.350;2023-04-08T06:22:29;95636.91;;;6.70;65.19
51083;BME280;37131;42.694;23.350;2023-04-08T06:24:55;95637.75;;;6.42;66.33
51083;BME280;37131;42.694;23.350;2023-04-08T06:27:21;95633.31;;;6.64;65.94
51083;BME280;37131;42.694;23.350;2023-04-08T06:29:46;95628.88;;;6.87;65.18
51083;BME280;37131;42.694;23.350;2023-04-08T06:32:12;95633.66;;;6.33;67.43
51083;BME280;37131;42.694;23.350;2023-04-08T06:34:38;95639.69;;;6.68;66.67
51083;BME280;37131;42.694;23.350;2023-04-08T06:37:03;95630.44;;;7.23;65.47
51083;BME280;37131;42.694;23.350;2023-04-08T06:39:30;95637.25;;;6.89;66.83
51083;BME280;37131;42.694;23.350;2023-04-08T06:41:55;95626.06;;;7.36;64.88
51083;BME280;37131;42.694;23.350;2023-04-08T06:44:22;95628.16;;;7.54;65.35
51083;BME280;37131;42.694;23.350;2023-04-08T06:46:47;95635.22;;;7.19;66.11
51083;BME280;37131;42.694;23.350;2023-04-08T06:49:12;95638.75;;;7.11;65.34
51083;BME280;37131;42.694;23.350;2023-04-08T06:51:37;95628.78;;;7.70;65.46
51083;BME280;37131;42.694;23.350;2023-04-08T06:54:03;95631.03;;;8.00;63.91
51083;BME280;37131;42.694;23.350;2023-04-08T06:56:28;95629.63;;;8.04;63.59
51083;BME280;37131;42.694;23.350;2023-04-08T06:58:53;95634.69;;;7.37;66.40
51083;BME280;37131;42.694;23.350;2023-04-08T07:01:19;95629.00;;;7.82;64.20
51083;BME280;37131;42.694;23.350;2023-04-08T07:03:44;95634.66;;;7.99;64.56
51083;BME280;37131;42.694;23.350;2023-04-08T07:06:10;95632.25;;;8.37;63.52
51083;BME280;37131;42.694;23.350;2023-04-08T07:08:35;95627.22;;;8.83;62.20
51083;BME280;37131;42.694;23.350;2023-04-08T07:11:01;95632.66;;;8.07;63.69
51083;BME280;37131;42.694;23.350;2023-04-08T07:13:27;95641.69;;;7.43;66.09
51083;BME280;37131;42.694;23.350;2023-04-08T07:15:52;95635.03;;;8.29;63.15
51083;BME280;37131;42.694;23.350;2023-04-08T07:18:17;95629.88;;;8.63;61.21
51083;BME280;37131;42.694;23.350;2023-04-08T07:20:42;95635.44;;;8.86;62.55
51083;BME280;37131;42.694;23.350;2023-04-08T07:23:08;95636.78;;;9.09;60.21
51083;BME280;37131;42.694;23.350;2023-04-08T07:25:33;95641.31;;;9.27;59.92
51083;BME280;37131;42.694;23.350;2023-04-08T07:28:01;95639.69;;;9.33;59.59
51083;BME280;37131;42.694;23.350;2023-04-08T07:30:26;95642.13;;;9.73;57.83
51083;BME280;37131;42.694;23.350;2023-04-08T07:32:52;95646.94;;;9.24;58.86
51083;BME280;37131;42.694;23.350;2023-04-08T07:35:19;95635.28;;;9.40;58.40
51083;BME280;37131;42.694;23.350;2023-04-08T07:37:48;95645.47;;;9.87;56.75
51083;BME280;37131;42.694;23.350;2023-04-08T07:40:13;95644.38;;;10.01;57.48
51083;BME280;37131;42.694;23.350;2023-04-08T07:42:39;95637.13;;;9.71;56.56
51083;BME280;37131;42.694;23.350;2023-04-08T07:45:04;95650.41;;;10.27;56.09
51083;BME280;37131;42.694;23.350;2023-04-08T07:47:29;95646.88;;;10.46;56.94
51083;BME280;37131;42.694;23.350;2023-04-08T07:49:55;95649.06;;;10.17;56.19
51083;BME280;37131;42.694;23.350;2023-04-08T07:52:20;95653.19;;;10.32;55.09
51083;BME280;37131;42.694;23.350;2023-04-08T07:54:45;95656.34;;;10.41;55.96
51083;BME280;37131;42.694;23.350;2023-04-08T07:57:11;95652.94;;;10.65;55.19
51083;BME280;37131;42.694;23.350;2023-04-08T07:59:36;95662.06;;;9.92;56.51
51083;BME280;37131;42.694;23.350;2023-04-08T08:02:01;95665.78;;;10.03;58.39
51083;BME280;37131;42.694;23.350;2023-04-08T08:04:27;95665.22;;;10.58;54.83
51083;BME280;37131;42.694;23.350;2023-04-08T08:06:52;95660.31;;;10.68;56.14
51083;BME280;37131;42.694;23.350;2023-04-08T08:09:17;95672.03;;;10.34;55.11
51083;BME280;37131;42.694;23.350;2023-04-08T08:11:42;95662.72;;;9.81;55.80
51083;BME280;37131;42.694;23.350;2023-04-08T08:14:08;95670.56;;;9.22;58.65
51083;BME280;37131;42.694;23.350;2023-04-08T08:16:35;95664.44;;;9.55;60.41
51083;BME280;37131;42.694;23.350;2023-04-08T08:19:02;95674.41;;;10.04;57.09
51083;BME280;37131;42.694;23.350;2023-04-08T08:21:30;95672.53;;;10.17;55.56
51083;BME280;37131;42.694;23.350;2023-04-08T08:23:55;95662.28;;;9.91;57.61
51083;BME280;37131;42.694;23.350;2023-04-08T08:26:20;95667.84;;;10.58;55.71
51083;BME280;37131;42.694;23.350;2023-04-08T08:28:46;95665.91;;;10.15;55.36
51083;BME280;37131;42.694;23.350;2023-04-08T08:31:11;95665.63;;;10.30;54.84
51083;BME280;37131;42.694;23.350;2023-04-08T08:33:36;95661.38;;;10.04;54.85
51083;BME280;37131;42.694;23.350;2023-04-08T08:36:01;95672.00;;;9.63;55.63
51083;BME280;37131;42.694;23.350;2023-04-08T08:38:29;95675.09;;;9.40;57.09
51083;BME280;37131;42.694;23.350;2023-04-08T08:40:54;95679.84;;;8.71;61.05
51083;BME280;37131;42.694;23.350;2023-04-08T08:43:20;95681.63;;;8.71;61.25
51083;BME280;37131;42.694;23.350;2023-04-08T08:45:45;95673.72;;;9.31;60.94
51083;BME280;37131;42.694;23.350;2023-04-08T08:48:11;95675.38;;;10.09;55.88
51083;BME280;37131;42.694;23.350;2023-04-08T08:50:36;95671.91;;;9.45;58.09
51083;BME280;37131;42.694;23.350;2023-04-08T08:53:01;95671.94;;;9.83;57.57
51083;BME280;37131;42.694;23.350;2023-04-08T08:55:28;95670.56;;;10.45;57.04
51083;BME280;37131;42.694;23.350;2023-04-08T08:57:55;95670.28;;;10.21;56.45
51083;BME280;37131;42.694;23.350;2023-04-08T09:00:29;95669.03;;;9.53;57.83
51083;BME280;37131;42.694;23.350;2023-04-08T09:02:55;95676.69;;;9.41;60.08
51083;BME280;37131;42.694;23.350;2023-04-08T09:05:20;95681.16;;;9.73;57.56
51083;BME280;37131;42.694;23.350;2023-04-08T09:07:47;95681.22;;;9.66;58.61
51083;BME280;37131;42.694;23.350;2023-04-08T09:10:12;95676.72;;;9.80;57.15
51083;BME280;37131;42.694;23.350;2023-04-08T09:12:52;95674.03;;;9.61;58.57
51083;BME280;37131;42.694;23.350;2023-04-08T09:15:17;95677.25;;;10.27;55.73
51083;BME280;37131;42.694;23.350;2023-04-08T09:17:42;95671.25;;;11.02;56.01
51083;BME280;37131;42.694;23.350;2023-04-08T09:20:08;95679.81;;;10.91;53.30
51083;BME280;37131;42.694;23.350;2023-04-08T09:22:53;95668.94;;;11.50;53.11
51083;BME280;37131;42.694;23.350;2023-04-08T09:25:26;95674.63;;;10.66;54.39
51083;BME280;37131;42.694;23.350;2023-04-08T09:27:52;95665.53;;;11.31;55.43
51083;BME280;37131;42.694;23.350;2023-04-08T09:30:18;95660.31;;;11.31;53.62
51083;BME280;37131;42.694;23.350;2023-04-08T09:32:50;95661.84;;;11.01;54.46
51083;BME280;37131;42.694;23.350;2023-04-08T09:35:16;95658.03;;;11.71;53.12
51083;BME280;37131;42.694;23.350;2023-04-08T09:37:42;95663.94;;;11.11;53.13
51083;BME280;37131;42.694;23.350;2023-04-08T09:40:07;95655.91;;;10.94;53.99
51083;BME280;37131;42.694;23.350;2023-04-08T09:42:33;95654.22;;;11.55;52.72
51083;BME280;37131;42.694;23.350;2023-04-08T09:45:00;95648.31;;;12.09;52.04
51083;BME280;37131;42.694;23.350;2023-04-08T09:47:28;95646.91;;;11.46;53.79
51083;BME280;37131;42.694;23.350;2023-04-08T09:50:00;95647.41;;;12.03;51.28
51083;BME280;37131;42.694;23.350;2023-04-08T09:52:37;95646.53;;;11.61;50.83
51083;BME280;37131;42.694;23.350;2023-04-08T09:55:05;95642.03;;;11.31;50.72
51083;BME280;37131;42.694;23.350;2023-04-08T10:00:33;95635.25;;;12.21;51.59
51083;BME280;37131;42.694;23.350;2023-04-08T10:03:09;95637.56;;;12.41;50.26
51083;BME280;37131;42.694;23.350;2023-04-08T10:05:35;95619.66;;;12.68;49.17
51083;BME280;37131;42.694;23.350;2023-04-08T10:08:01;95621.19;;;12.93;49.19
51083;BME280;37131;42.694;23.350;2023-04-08T10:10:27;95627.13;;;12.76;48.29
51083;BME280;37131;42.694;23.350;2023-04-08T10:12:53;95627.50;;;12.68;48.28
51083;BME280;37131;42.694;23.350;2023-04-08T10:15:31;95615.66;;;12.77;49.10
51083;BME280;37131;42.694;23.350;2023-04-08T10:22:56;95607.69;;;12.49;48.73
51083;BME280;37131;42.694;23.350;2023-04-08T10:27:50;95618.13;;;12.49;48.87
51083;BME280;37131;42.694;23.350;2023-04-08T10:32:52;95608.03;;;12.76;49.65
51083;BME280;37131;42.694;23.350;2023-04-08T10:35:35;95608.81;;;12.53;48.09
51083;BME280;37131;42.694;23.350;2023-04-08T10:38:01;95600.88;;;12.71;48.17
51083;BME280;37131;42.694;23.350;2023-04-08T10:40:26;95610.75;;;12.57;47.12
51083;BME280;37131;42.694;23.350;2023-04-08T10:42:55;95608.03;;;12.28;48.34
51083;BME280;37131;42.694;23.350;2023-04-08T10:45:21;95606.75;;;12.55;47.60
51083;BME280;37131;42.694;23.350;2023-04-08T10:47:46;95608.50;;;12.61;48.68
51083;BME280;37131;42.694;23.350;2023-04-08T10:50:15;95599.13;;;12.41;47.47
51083;BME280;37131;42.694;23.350;2023-04-08T10:52:51;95595.97;;;12.27;47.70
51083;BME280;37131;42.694;23.350;2023-04-08T10:55:22;95592.88;;;12.78;46.57
51083;BME280;37131;42.694;23.350;2023-04-08T10:57:49;95591.75;;;12.62;47.09
51083;BME280;37131;42.694;23.350;2023-04-08T11:00:18;95584.88;;;13.20;46.07
51083;BME280;37131;42.694;23.350;2023-04-08T11:02:43;95578.00;;;13.72;46.14
51083;BME280;37131;42.694;23.350;2023-04-08T11:05:09;95576.44;;;14.21;45.15
51083;BME280;37131;42.694;23.350;2023-04-08T11:07:40;95568.03;;;14.36;44.09
51083;BME280;37131;42.694;23.350;2023-04-08T11:10:06;95563.56;;;14.37;43.94
51083;BME280;37131;42.694;23.350;2023-04-08T11:12:31;95566.88;;;13.12;44.79
51083;BME280;37131;42.694;23.350;2023-04-08T11:14:58;95574.25;;;12.39;46.50
51083;BME280;37131;42.694;23.350;2023-04-08T11:17:23;95569.38;;;12.42;46.68
51083;BME280;37131;42.694;23.350;2023-04-08T11:19:48;95563.34;;;12.30;46.59
51083;BME280;37131;42.694;23.350;2023-04-08T11:22:14;95558.16;;;12.94;46.39
51083;BME280;37131;42.694;23.350;2023-04-08T11:24:40;95562.56;;;13.18;46.98
51083;BME280;37131;42.694;23.350;2023-04-08T11:27:06;95548.38;;;13.42;44.85
51083;BME280;37131;42.694;23.350;2023-04-08T11:29:31;95550.91;;;13.83;43.93
51083;BME280;37131;42.694;23.350;2023-04-08T11:31:57;95539.66;;;13.54;43.61
51083;BME280;37131;42.694;23.350;2023-04-08T11:34:22;95544.06;;;13.65;42.65
51083;BME280;37131;42.694;23.350;2023-04-08T11:36:49;95539.16;;;13.68;42.99
51083;BME280;37131;42.694;23.350;2023-04-08T11:39:14;95547.19;;;13.09;43.37
51083;BME280;37131;42.694;23.350;2023-04-08T11:41:40;95541.81;;;13.57;42.05
51083;BME280;37131;42.694;23.350;2023-04-08T11:44:05;95535.19;;;13.66;43.13
51083;BME280;37131;42.694;23.350;2023-04-08T11:46:31;95526.34;;;14.40;42.45
51083;BME280;37131;42.694;23.350;2023-04-08T11:49:06;95518.84;;;15.10;41.06
51083;BME280;37131;42.694;23.350;2023-04-08T11:51:32;95510.59;;;15.23;39.42
51083;BME280;37131;42.694;23.350;2023-04-08T11:53:58;95508.25;;;15.00;40.77
51083;BME280;37131;42.694;23.350;2023-04-08T11:56:24;95519.56;;;15.00;39.83
51083;BME280;37131;42.694;23.350;2023-04-08T11:58:50;95518.69;;;15.17;39.22
51083;BME280;37131;42.694;23.350;2023-04-08T12:01:15;95512.34;;;15.67;39.44
51083;BME280;37131;42.694;23.350;2023-04-08T12:03:54;95500.31;;;15.76;36.83
51083;BME280;37131;42.694;23.350;2023-04-08T12:06:19;95496.09;;;15.43;36.87
51083;BME280;37131;42.694;23.350;2023-04-08T12:08:45;95494.47;;;15.37;38.75
51083;BME280;37131;42.694;23.350;2023-04-08T12:11:10;95497.88;;;15.37;38.08
51083;BME280;37131;42.694;23.350;2023-04-08T12:13:36;95486.09;;;15.40;38.47
51083;BME280;37131;42.694;23.350;2023-04-08T12:16:01;95486.75;;;15.85;39.89
51083;BME280;37131;42.694;23.350;2023-04-08T12:18:26;95494.28;;;15.76;36.39
51083;BME280;37131;42.694;23.350;2023-04-08T12:20:52;95491.78;;;15.91;36.24
51083;BME280;37131;42.694;23.350;2023-04-08T12:23:17;95498.47;;;16.47;35.35
51083;BME280;37131;42.694;23.350;2023-04-08T12:25:42;95490.81;;;16.40;35.92
51083;BME280;37131;42.694;23.350;2023-04-08T12:28:08;95495.94;;;16.62;34.95
51083;BME280;37131;42.694;23.350;2023-04-08T12:30:35;95486.16;;;17.16;33.92
51083;BME280;37131;42.694;23.350;2023-04-08T12:33:01;95483.25;;;16.49;36.73
51083;BME280;37131;42.694;23.350;2023-04-08T12:35:26;95492.94;;;16.01;35.54
51083;BME280;37131;42.694;23.350;2023-04-08T12:37:52;95493.66;;;15.64;36.79
51083;BME280;37131;42.694;23.350;2023-04-08T12:40:17;95500.88;;;14.01;39.30
51083;BME280;37131;42.694;23.350;2023-04-08T12:42:43;95491.91;;;13.46;40.83
51083;BME280;37131;42.694;23.350;2023-04-08T12:45:08;95485.22;;;13.73;40.54
51083;BME280;37131;42.694;23.350;2023-04-08T12:47:33;95493.97;;;13.61;41.57
51083;BME280;37131;42.694;23.350;2023-04-08T12:49:59;95495.78;;;13.44;40.85
51083;BME280;37131;42.694;23.350;2023-04-08T12:52:24;95500.53;;;13.06;42.38
51083;BME280;37131;42.694;23.350;2023-04-08T12:54:49;95493.41;;;12.61;44.19
51083;BME280;37131;42.694;23.350;2023-04-08T12:57:15;95498.94;;;12.76;44.69
51083;BME280;37131;42.694;23.350;2023-04-08T12:59:40;95501.25;;;12.61;45.82
51083;BME280;37131;42.694;23.350;2023-04-08T13:02:05;95510.22;;;12.41;46.71
51083;BME280;37131;42.694;23.350;2023-04-08T13:04:31;95514.25;;;12.96;45.02
51083;BME280;37131;42.694;23.350;2023-04-08T13:06:56;95510.34;;;12.46;45.33
51083;BME280;37131;42.694;23.350;2023-04-08T13:09:25;95513.75;;;12.35;45.69